De Queen, Arkansas
Current Conditions -  °F | °C
As of 9:11 PM on Monday 20 Oct 2014 (Local Time) from KDEQ Reporting Station
Haze Haze  
Wind Chill: 60°   Ceiling: 300
Heat Index: 60°   Visibility: 0.75mi
Dew Point: 60°   Wind: 0mph
Humidity: 100%   Direction: NA
Pressure: 30.03"   Gusts: NA
Location:  34.04°N, 94.34°W
Report Text: KDEQ 210211Z AUTO 00000KT 3/4SM BR VV003 16/16 A3003 RMK AO2 VIS 1/4V5 T01560156
Loading
Personal Weather Stations






























Interactive Weather Map New forecast layout! Learn more

10-Day Weather Forecast

Advertisements
Track Severe Weather on mobile